Time,TemperatureF,DewpointF,PressureIn,WindDirection,WindDirectionDegrees,WindSpeedMPH,WindSpeedGustMPH,Humidity,HourlyPrecipIn,Conditions,Clouds,dailyrainin,SoftwareType,DateUTC
2013-08-19 00:00:00,43.0,31.0,29.95,NW,310,5.0,-999.0,61,-99.99,,,-99.99,,2013-08-19 04:00:00,
2013-08-19 00:42:00,43.0,31.0,29.95,NW,310,5.0,-999.0,61,-99.99,,,-99.99,,2013-08-19 04:42:00,
2013-08-19 00:53:00,43.0,31.0,29.95,NW,310,5.0,-999.0,61,-99.99,,,-99.99,,2013-08-19 04:53:00,
2013-08-19 01:00:00,43.0,29.0,29.96,West,260,7.0,-999.0,56,-99.99,,,-99.99,,2013-08-19 05:00:00,
2013-08-19 01:42:00,43.0,29.0,29.96,West,260,7.0,-999.0,56,-99.99,,,-99.99,,2013-08-19 05:42:00,
2013-08-19 01:52:00,43.0,29.0,29.96,West,260,7.0,-999.0,56,-99.99,,,-99.99,,2013-08-19 05:52:00,
2013-08-19 02:00:00,43.0,30.0,29.96,West,280,6.0,-999.0,59,-99.99,,,-99.99,,2013-08-19 06:00:00,
2013-08-19 02:41:00,43.0,30.0,29.96,West,280,6.0,-999.0,59,-99.99,,,-99.99,,2013-08-19 06:41:00,
2013-08-19 02:51:00,43.0,30.0,29.96,West,280,6.0,-999.0,59,-99.99,,,-99.99,,2013-08-19 06:51:00,
2013-08-19 03:00:00,43.0,30.0,29.97,West,260,9.0,-999.0,59,-99.99,,,-99.99,,2013-08-19 07:00:00,
2013-08-19 03:42:00,43.0,30.0,29.97,West,260,9.0,-999.0,59,-99.99,,,-99.99,,2013-08-19 07:42:00,
2013-08-19 03:52:00,43.0,30.0,29.97,West,260,9.0,-999.0,59,-99.99,,,-99.99,,2013-08-19 07:52:00,
2013-08-19 04:00:00,43.0,30.0,29.97,West,270,6.0,-999.0,61,-99.99,,,-99.99,,2013-08-19 08:00:00,
2013-08-19 04:41:00,43.0,30.0,29.97,West,270,6.0,-999.0,61,-99.99,,,-99.99,,2013-08-19 08:41:00,
2013-08-19 04:51:00,43.0,30.0,29.97,West,270,6.0,-999.0,61,-99.99,,,-99.99,,2013-08-19 08:51:00,
2013-08-19 05:00:00,42.0,30.0,29.96,WSW,250,10.0,-999.0,62,-99.99,,,-99.99,,2013-08-19 09:00:00,
2013-08-19 05:43:00,42.0,30.0,29.96,WSW,250,10.0,-999.0,62,-99.99,,,-99.99,,2013-08-19 09:43:00,
2013-08-19 05:53:00,42.0,30.0,29.96,WSW,250,10.0,-999.0,62,-99.99,,,-99.99,,2013-08-19 09:53:00,
2013-08-19 06:00:00,42.0,30.0,29.96,West,260,9.0,-999.0,63,-99.99,,,-99.99,,2013-08-19 10:00:00,
2013-08-19 06:42:00,42.0,30.0,29.96,West,260,9.0,-999.0,63,-99.99,,,-99.99,,2013-08-19 10:42:00,
2013-08-19 06:52:00,42.0,30.0,29.96,West,260,9.0,-999.0,63,-99.99,,,-99.99,,2013-08-19 10:52:00,
2013-08-19 07:00:00,43.0,30.0,29.97,West,260,7.0,-999.0,60,-99.99,,,-99.99,,2013-08-19 11:00:00,
2013-08-19 07:44:00,43.0,30.0,29.97,West,260,7.0,-999.0,60,-99.99,,,-99.99,,2013-08-19 11:44:00,
2013-08-19 07:52:00,43.0,30.0,29.97,West,260,7.0,-999.0,60,-99.99,,,-99.99,,2013-08-19 11:52:00,
2013-08-19 08:00:00,42.0,33.0,29.98,WNW,290,1.0,-999.0,70,-99.99,,,-99.99,,2013-08-19 12:00:00,
2013-08-19 08:42:00,42.0,33.0,29.98,WNW,290,1.0,-999.0,70,-99.99,,,-99.99,,2013-08-19 12:42:00,
2013-08-19 08:52:00,42.0,33.0,29.98,WNW,290,1.0,-999.0,70,-99.99,,,-99.99,,2013-08-19 12:52:00,
2013-08-19 09:00:00,42.0,33.0,29.97,South,170,3.0,-999.0,71,-99.99,,,-99.99,,2013-08-19 13:00:00,
2013-08-19 09:42:00,42.0,33.0,29.97,South,170,3.0,-999.0,71,-99.99,,,-99.99,,2013-08-19 13:42:00,
2013-08-19 09:52:00,42.0,33.0,29.97,South,170,3.0,-999.0,71,-99.99,,,-99.99,,2013-08-19 13:52:00,
2013-08-19 10:00:00,40.0,35.0,29.96,WNW,290,5.0,-999.0,81,-99.99,,,-99.99,,2013-08-19 14:00:00,
2013-08-19 10:42:00,40.0,35.0,29.96,WNW,290,5.0,-999.0,81,-99.99,,,-99.99,,2013-08-19 14:42:00,
2013-08-19 10:52:00,40.0,35.0,29.96,WNW,290,5.0,-999.0,81,-99.99,,,-99.99,,2013-08-19 14:52:00,
2013-08-19 11:00:00,40.0,37.0,29.96,NNW,330,8.0,-999.0,91,-99.99,,,-99.99,,2013-08-19 15:00:00,
2013-08-19 11:44:00,40.0,37.0,29.96,NNW,330,8.0,-999.0,91,-99.99,,,-99.99,,2013-08-19 15:44:00,
2013-08-19 11:54:00,40.0,37.0,29.96,NNW,330,8.0,-999.0,91,-99.99,,,-99.99,,2013-08-19 15:54:00,
2013-08-19 12:00:00,39.0,38.0,29.97,NW,320,2.0,-999.0,96,-99.99,,,-99.99,,2013-08-19 16:00:00,
2013-08-19 12:47:00,39.0,38.0,29.97,NW,320,2.0,-999.0,96,-99.99,,,-99.99,,2013-08-19 16:47:00,
2013-08-19 13:00:00,40.0,38.0,29.97,NW,310,2.0,-999.0,91,-99.99,,,-99.99,,2013-08-19 17:00:00,
2013-08-19 13:49:00,40.0,38.0,29.97,NW,310,2.0,-999.0,91,-99.99,,,-99.99,,2013-08-19 17:49:00,
2013-08-19 13:57:00,40.0,38.0,29.97,NW,310,2.0,-999.0,91,-99.99,,,-99.99,,2013-08-19 17:57:00,
2013-08-19 14:00:00,-999.0,-99.9,29.95,WNW,300,13.0,-999.0,68,-99.99,,,-99.99,,2013-08-19 18:00:00,
2013-08-19 14:50:00,-999.0,-99.9,29.95,WNW,300,13.0,-999.0,68,-99.99,,,-99.99,,2013-08-19 18:50:00,
2013-08-19 15:00:00,41.0,35.0,29.94,WSW,250,7.0,-999.0,79,-99.99,,,-99.99,,2013-08-19 19:00:00,
2013-08-19 15:30:00,-999.0,-99.9,29.94,WSW,250,7.0,-999.0,79,-99.99,,,-99.99,,2013-08-19 19:30:00,
2013-08-19 15:49:00,41.0,35.0,29.94,WSW,250,7.0,-999.0,79,-99.99,,,-99.99,,2013-08-19 19:49:00,
2013-08-19 15:59:00,41.0,35.0,29.94,WSW,250,7.0,-999.0,79,-99.99,,,-99.99,,2013-08-19 19:59:00,
2013-08-19 16:00:00,-999.0,-99.9,-100.00,South,170,8.0,-999.0,-999,-99.99,,,-99.99,,2013-08-19 20:00:00,
2013-08-19 16:50:00,42.0,36.0,29.92,South,170,8.0,-999.0,78,-99.99,,,-99.99,,2013-08-19 20:50:00,
2013-08-19 17:00:00,44.0,39.0,29.92,SSE,150,6.0,-999.0,84,-99.99,,,-99.99,,2013-08-19 21:00:00,
2013-08-19 17:45:00,44.0,39.0,29.92,SSE,150,6.0,-999.0,84,-99.99,,,-99.99,,2013-08-19 21:45:00,
2013-08-19 17:54:00,44.0,39.0,29.92,SSE,150,6.0,-999.0,84,-99.99,,,-99.99,,2013-08-19 21:54:00,
2013-08-19 18:00:00,46.0,34.0,29.90,ESE,120,9.0,-999.0,64,-99.99,,,-99.99,,2013-08-19 22:00:00,
2013-08-19 18:44:00,46.0,34.0,29.90,ESE,120,9.0,-999.0,64,-99.99,,,-99.99,,2013-08-19 22:44:00,
2013-08-19 18:54:00,46.0,34.0,29.90,ESE,120,9.0,-999.0,64,-99.99,,,-99.99,,2013-08-19 22:54:00,
2013-08-19 20:00:00,55.0,34.0,29.88,NE,50,5.0,-999.0,45,-99.99,,,-99.99,,2013-08-20 00:00:00,
2013-08-19 20:41:00,55.0,34.0,29.88,NE,50,5.0,-999.0,45,-99.99,,,-99.99,,2013-08-20 00:41:00,
2013-08-19 20:52:00,55.0,34.0,29.88,NE,50,5.0,-999.0,45,-99.99,,,-99.99,,2013-08-20 00:52:00,
2013-08-19 21:00:00,47.0,39.0,29.88,NW,310,3.0,-999.0,71,-99.99,,,-99.99,,2013-08-20 01:00:00,
2013-08-19 21:42:00,47.0,39.0,29.88,NW,310,3.0,-999.0,71,-99.99,,,-99.99,,2013-08-20 01:42:00,
2013-08-19 21:52:00,47.0,39.0,29.88,NW,310,3.0,-999.0,71,-99.99,,,-99.99,,2013-08-20 01:52:00,
2013-08-19 22:00:00,46.0,36.0,29.88,North,0,0.0,-999.0,68,-99.99,,,-99.99,,2013-08-20 02:00:00,
2013-08-19 22:41:00,46.0,36.0,29.88,North,0,0.0,-999.0,68,-99.99,,,-99.99,,2013-08-20 02:41:00,
2013-08-19 22:51:00,46.0,36.0,29.88,North,0,0.0,-999.0,68,-99.99,,,-99.99,,2013-08-20 02:51:00,
2013-08-19 23:00:00,48.0,33.0,29.87,WSW,250,6.0,-999.0,55,-99.99,,,-99.99,,2013-08-20 03:00:00,
2013-08-19 23:43:00,48.0,33.0,29.87,WSW,250,6.0,-999.0,55,-99.99,,,-99.99,,2013-08-20 03:43:00,
2013-08-19 23:53:00,48.0,33.0,29.87,WSW,250,6.0,-999.0,55,-99.99,,,-99.99,,2013-08-20 03:53:00,